createdAt,value
2022-08-23T00:00:45.119Z,6.70
2022-08-23T00:01:52.812Z,6.10
2022-08-23T00:02:45.633Z,6.30
2022-08-23T00:03:45.941Z,6.50
2022-08-23T00:05:07.604Z,6.50
2022-08-23T00:05:47.353Z,6.20
2022-08-23T00:06:45.112Z,6.10
2022-08-23T00:07:44.973Z,5.90
2022-08-23T00:08:48.326Z,6.00
2022-08-23T00:09:44.953Z,6.00
2022-08-23T00:10:44.940Z,5.90
2022-08-23T00:11:44.903Z,6.40
2022-08-23T00:12:44.898Z,6.60
2022-08-23T00:13:47.961Z,6.40
2022-08-23T00:14:45.390Z,6.80
2022-08-23T00:15:44.873Z,6.20
2022-08-23T00:16:44.855Z,6.10
2022-08-23T00:17:44.813Z,6.20
2022-08-23T00:18:47.731Z,6.20
2022-08-23T00:19:44.803Z,6.40
2022-08-23T00:20:44.817Z,6.70
2022-08-23T00:21:44.772Z,6.10
2022-08-23T00:22:44.742Z,6.00
2022-08-23T00:23:44.752Z,6.30
2022-08-23T00:24:45.309Z,6.20
2022-08-23T00:25:44.713Z,6.40
2022-08-23T00:26:44.740Z,5.90
2022-08-23T00:27:44.703Z,6.00
2022-08-23T00:28:44.660Z,5.80
2022-08-23T00:29:44.680Z,5.90
2022-08-23T00:30:45.089Z,6.40
2022-08-23T00:31:44.630Z,5.90
2022-08-23T00:32:44.643Z,6.10
2022-08-23T00:33:44.601Z,5.80
2022-08-23T00:34:44.902Z,6.00
2022-08-23T00:35:44.606Z,5.50
2022-08-23T00:36:44.578Z,5.80
2022-08-23T00:37:44.580Z,6.40
2022-08-23T00:38:45.553Z,5.80
2022-08-23T00:39:44.579Z,5.80
2022-08-23T00:40:44.837Z,5.50
2022-08-23T00:41:45.503Z,6.00
2022-08-23T00:42:44.499Z,5.90
2022-08-23T00:43:44.506Z,5.30
2022-08-23T00:44:44.542Z,6.10
2022-08-23T00:45:44.463Z,6.20
2022-08-23T00:46:44.469Z,6.10
2022-08-23T00:47:45.017Z,6.20
2022-08-23T00:48:44.412Z,5.90
2022-08-23T00:49:44.458Z,5.80
2022-08-23T00:50:44.568Z,6.30
2022-08-23T00:51:53.182Z,5.80
2022-08-23T00:52:45.389Z,6.00
2022-08-23T00:53:44.358Z,6.10
2022-08-23T00:54:44.741Z,6.00
2022-08-23T00:55:44.326Z,6.00
2022-08-23T00:56:44.323Z,6.80
2022-08-23T00:57:44.297Z,6.00
2022-08-23T00:58:44.285Z,6.00
2022-08-23T00:59:44.274Z,5.80
2022-08-23T01:00:44.636Z,5.90
2022-08-23T01:01:44.308Z,5.90
2022-08-23T01:02:44.236Z,5.70
2022-08-23T01:03:44.237Z,5.90
2022-08-23T01:04:44.664Z,6.30
2022-08-23T01:05:44.214Z,6.00
2022-08-23T01:06:44.202Z,6.40
2022-08-23T01:07:44.204Z,6.40
2022-08-23T01:08:44.166Z,6.60
2022-08-23T01:09:44.184Z,6.10
2022-08-23T01:10:44.540Z,6.50
2022-08-23T01:11:44.154Z,7.40
2022-08-23T01:12:44.111Z,7.40
2022-08-23T01:13:44.115Z,7.10
2022-08-23T01:14:44.534Z,6.60
2022-08-23T01:15:44.072Z,6.90
2022-08-23T01:16:44.061Z,6.70
2022-08-23T01:17:44.082Z,6.60
2022-08-23T01:18:44.072Z,6.90
2022-08-23T01:19:44.051Z,6.60
2022-08-23T01:20:44.021Z,6.80
2022-08-23T01:21:44.002Z,7.00
2022-08-23T01:22:43.991Z,7.60
2022-08-23T01:23:43.980Z,7.40
2022-08-23T01:25:06.247Z,7.60
2022-08-23T01:25:44.958Z,8.40
2022-08-23T01:26:43.951Z,7.60
2022-08-23T01:27:43.920Z,8.30
2022-08-23T01:28:45.759Z,7.70
2022-08-23T01:29:43.888Z,7.60
2022-08-23T01:30:43.908Z,7.50
2022-08-23T01:31:43.861Z,7.30
2022-08-23T01:32:51.021Z,6.80
2022-08-23T01:33:51.021Z,7.40
2022-08-23T01:34:45.908Z,7.40
2022-08-23T01:35:44.850Z,7.80
2022-08-23T01:36:43.807Z,8.00
2022-08-23T01:37:43.777Z,7.50
2022-08-23T01:38:43.781Z,7.70
2022-08-23T01:39:43.769Z,7.70
2022-08-23T01:40:44.232Z,8.00
2022-08-23T01:41:43.727Z,7.50
2022-08-23T01:42:43.734Z,8.20
2022-08-23T01:43:43.696Z,8.10
2022-08-23T01:44:44.014Z,7.80
2022-08-23T01:45:45.290Z,8.10
2022-08-23T01:46:43.678Z,7.80
2022-08-23T01:47:43.637Z,7.80
2022-08-23T01:48:43.647Z,8.20
2022-08-23T01:49:43.635Z,8.20
2022-08-23T01:50:44.037Z,8.20
2022-08-23T01:51:43.615Z,8.60
2022-08-23T01:52:47.207Z,7.80
2022-08-23T01:53:43.587Z,7.90
2022-08-23T01:54:43.615Z,7.30
2022-08-23T01:55:43.526Z,7.90
2022-08-23T01:56:43.537Z,8.00
2022-08-23T01:57:45.474Z,8.00
2022-08-23T01:58:43.535Z,7.90
2022-08-23T01:59:48.412Z,7.60
2022-08-23T02:00:43.906Z,8.20
2022-08-23T02:01:43.534Z,9.10
2022-08-23T02:02:43.455Z,8.30
2022-08-23T02:03:43.435Z,8.30
2022-08-23T02:04:43.873Z,7.90
2022-08-23T02:05:43.444Z,7.80
2022-08-23T02:06:43.401Z,7.30
2022-08-23T02:07:43.373Z,8.40
2022-08-23T02:08:43.370Z,7.80
2022-08-23T02:09:43.360Z,7.60
2022-08-23T02:10:43.803Z,6.70
2022-08-23T02:11:43.331Z,7.00
2022-08-23T02:12:43.330Z,8.10
2022-08-23T02:13:43.311Z,8.50
2022-08-23T02:14:43.673Z,7.00
2022-08-23T02:15:43.285Z,7.20
2022-08-23T02:16:43.282Z,6.80
2022-08-23T02:17:44.268Z,7.70
2022-08-23T02:18:43.243Z,8.60
2022-08-23T02:19:43.230Z,7.80
2022-08-23T02:20:43.568Z,8.00
2022-08-23T02:21:43.211Z,8.30
2022-08-23T02:22:43.199Z,7.90
2022-08-23T02:23:43.171Z,8.30
2022-08-23T02:24:43.590Z,8.30
2022-08-23T02:25:43.160Z,7.60
2022-08-23T02:26:46.342Z,8.40
2022-08-23T02:27:44.292Z,7.80
2022-08-23T02:28:43.121Z,8.60
2022-08-23T02:29:44.077Z,7.60
2022-08-23T02:30:43.409Z,7.70
2022-08-23T02:31:43.079Z,7.50
2022-08-23T02:32:43.058Z,7.30
2022-08-23T02:33:43.050Z,8.20
2022-08-23T02:34:43.379Z,8.30
2022-08-23T02:35:43.026Z,7.90
2022-08-23T02:36:42.988Z,7.90
2022-08-23T02:37:42.998Z,8.30
2022-08-23T02:38:42.978Z,8.40
2022-08-23T02:39:43.451Z,8.90
2022-08-23T02:40:42.967Z,8.50
2022-08-23T02:41:42.945Z,8.50
2022-08-23T02:42:42.947Z,8.10
2022-08-23T02:43:42.919Z,7.80
2022-08-23T02:44:43.246Z,8.40
2022-08-23T02:45:42.966Z,8.30
2022-08-23T02:46:43.027Z,8.10
2022-08-23T02:47:42.884Z,8.50
2022-08-23T02:48:42.864Z,8.60
2022-08-23T02:49:42.881Z,9.20
2022-08-23T02:50:43.276Z,8.30
2022-08-23T02:51:42.842Z,8.90
2022-08-23T02:52:42.796Z,9.40
2022-08-23T02:53:42.785Z,8.80
2022-08-23T02:54:43.285Z,8.70
2022-08-23T02:55:42.922Z,9.50
2022-08-23T02:56:42.767Z,9.10
2022-08-23T02:57:42.745Z,9.10
2022-08-23T02:58:42.728Z,9.00
2022-08-23T02:59:42.720Z,8.30
2022-08-23T03:00:43.134Z,8.90
2022-08-23T03:01:42.700Z,8.50
2022-08-23T03:02:51.340Z,8.10
2022-08-23T03:04:59.165Z,8.10
2022-08-23T03:06:24.915Z,8.00
2022-08-23T03:06:59.794Z,8.50
2022-08-23T03:07:58.840Z,8.60
2022-08-23T03:08:58.743Z,8.00
2022-08-23T03:09:59.185Z,8.30
2022-08-23T03:10:58.734Z,8.40
2022-08-23T03:12:00.114Z,9.10
2022-08-23T03:13:03.344Z,8.70
2022-08-23T03:13:58.678Z,8.70
2022-08-23T03:14:59.034Z,8.40
2022-08-23T03:15:58.664Z,8.20
2022-08-23T03:16:58.653Z,8.30
2022-08-23T03:17:58.643Z,8.60
2022-08-23T03:18:58.636Z,8.50
2022-08-23T03:19:59.034Z,8.90
2022-08-23T03:20:58.602Z,9.00
2022-08-23T03:21:58.590Z,8.70
2022-08-23T03:22:58.585Z,8.90
2022-08-23T03:23:58.551Z,8.70
2022-08-23T03:24:58.950Z,8.80
2022-08-23T03:25:58.560Z,8.90
2022-08-23T03:26:58.643Z,8.80
2022-08-23T03:27:58.936Z,8.60
2022-08-23T03:28:58.762Z,8.80
2022-08-23T03:29:59.133Z,8.80
2022-08-23T03:30:58.497Z,9.00
2022-08-23T03:31:58.467Z,8.90
2022-08-23T03:32:58.431Z,8.70
2022-08-23T03:33:58.434Z,8.30
2022-08-23T03:34:58.753Z,8.80
2022-08-23T03:35:58.409Z,8.60
2022-08-23T03:36:58.457Z,8.80
2022-08-23T03:37:58.368Z,9.10
2022-08-23T03:38:58.389Z,8.70
2022-08-23T03:39:58.760Z,9.20
2022-08-23T03:40:58.351Z,8.70
2022-08-23T03:41:58.331Z,9.00
2022-08-23T03:42:58.338Z,8.80
2022-08-23T03:43:58.320Z,8.60
2022-08-23T03:45:02.448Z,8.60
2022-08-23T03:45:58.538Z,8.50
2022-08-23T03:46:58.268Z,8.60
2022-08-23T03:47:58.258Z,9.00
2022-08-23T03:48:58.257Z,8.80
2022-08-23T03:49:58.246Z,8.90
2022-08-23T03:50:58.645Z,8.10
2022-08-23T03:51:58.209Z,9.10
2022-08-23T03:52:58.187Z,8.60
2022-08-23T03:53:58.163Z,8.60
2022-08-23T03:54:58.588Z,8.40
2022-08-23T03:55:58.136Z,8.80
2022-08-23T03:56:58.136Z,8.40
2022-08-23T03:57:58.188Z,8.60
2022-08-23T03:58:58.126Z,8.80
2022-08-23T03:59:58.105Z,8.40
2022-08-23T04:00:58.326Z,8.50
2022-08-23T04:01:58.243Z,8.40
2022-08-23T04:02:58.075Z,8.40
2022-08-23T04:03:58.046Z,8.40
2022-08-23T04:04:58.458Z,8.20
2022-08-23T04:05:58.014Z,8.60
2022-08-23T04:06:57.994Z,8.00
2022-08-23T04:07:58.066Z,8.50
2022-08-23T04:08:57.993Z,8.70
2022-08-23T04:09:57.972Z,8.70
2022-08-23T04:10:58.352Z,9.30
2022-08-23T04:11:57.940Z,10.30
2022-08-23T04:12:57.934Z,9.50
2022-08-23T04:14:05.403Z,8.90
2022-08-23T04:14:58.253Z,9.70
2022-08-23T04:15:57.892Z,9.10
2022-08-23T04:16:57.901Z,9.90
2022-08-23T04:17:57.880Z,9.60
2022-08-23T04:18:57.844Z,9.40
2022-08-23T04:19:58.331Z,9.20
2022-08-23T04:20:57.871Z,9.20
2022-08-23T04:21:57.816Z,9.20
2022-08-23T04:22:57.800Z,9.20
2022-08-23T04:23:57.782Z,9.00
2022-08-23T04:24:58.161Z,9.40
2022-08-23T04:25:57.760Z,9.30
2022-08-23T04:26:57.770Z,9.70
2022-08-23T04:27:57.800Z,9.60
2022-08-23T04:28:57.740Z,9.80
2022-08-23T04:29:58.151Z,9.10
2022-08-23T04:30:57.759Z,9.70
2022-08-23T04:31:57.709Z,9.80
2022-08-23T04:32:57.666Z,10.10
2022-08-23T04:33:57.690Z,9.60
2022-08-23T04:34:57.955Z,9.40
2022-08-23T04:35:57.656Z,8.80
2022-08-23T04:36:57.629Z,9.10
2022-08-23T04:37:57.655Z,9.10
2022-08-23T04:38:57.619Z,9.80
2022-08-23T04:39:57.618Z,9.20
2022-08-23T04:40:58.018Z,9.40
2022-08-23T04:41:57.608Z,9.70
2022-08-23T04:42:57.546Z,9.50
2022-08-23T04:43:57.579Z,10.20
2022-08-23T04:44:57.670Z,10.30
2022-08-23T04:45:57.877Z,9.80
2022-08-23T04:46:57.506Z,10.20
2022-08-23T04:47:57.538Z,9.70
2022-08-23T04:48:57.466Z,9.90
2022-08-23T04:49:57.466Z,9.40
2022-08-23T04:50:57.889Z,9.70
2022-08-23T04:51:57.465Z,9.20
2022-08-23T04:52:57.412Z,9.60
2022-08-23T04:53:57.416Z,9.60
2022-08-23T04:54:57.824Z,9.00
2022-08-23T04:55:57.400Z,8.80
2022-08-23T04:56:57.362Z,8.90
2022-08-23T04:57:57.382Z,9.50
2022-08-23T04:58:57.364Z,9.60
2022-08-23T04:59:57.322Z,10.10
2022-08-23T05:00:57.747Z,9.60
2022-08-23T05:01:57.312Z,10.50
2022-08-23T05:02:57.316Z,10.50
2022-08-23T05:03:57.284Z,10.60
2022-08-23T05:04:57.689Z,10.10
2022-08-23T05:05:57.263Z,10.20
2022-08-23T05:06:57.228Z,10.20
2022-08-23T05:07:57.275Z,10.50
2022-08-23T05:08:57.213Z,10.40
2022-08-23T05:09:57.191Z,10.20
2022-08-23T05:10:57.583Z,10.70
2022-08-23T05:11:57.200Z,10.70
2022-08-23T05:12:57.201Z,11.40
2022-08-23T05:13:57.150Z,11.30
2022-08-23T05:14:57.579Z,11.10
2022-08-23T05:15:57.220Z,11.10
2022-08-23T05:16:57.142Z,10.50
2022-08-23T05:17:57.141Z,11.20
2022-08-23T05:18:57.079Z,11.20
2022-08-23T05:19:57.111Z,11.00
2022-08-23T05:20:57.439Z,10.70
2022-08-23T05:21:57.388Z,11.10
2022-08-23T05:22:57.046Z,10.90
2022-08-23T05:23:57.029Z,10.50
2022-08-23T05:24:57.439Z,10.70
2022-08-23T05:25:56.990Z,10.70
2022-08-23T05:26:56.988Z,11.00
2022-08-23T05:27:57.114Z,10.70
2022-08-23T05:28:56.958Z,10.70
2022-08-23T05:29:56.967Z,10.90
2022-08-23T05:30:57.358Z,10.10
2022-08-23T05:31:56.929Z,9.70
2022-08-23T05:32:56.934Z,10.40
2022-08-23T05:33:56.888Z,9.20
2022-08-23T05:34:57.317Z,10.30
2022-08-23T05:35:56.874Z,9.70
2022-08-23T05:36:56.854Z,9.00
2022-08-23T05:37:56.827Z,8.60
2022-08-23T05:38:56.835Z,9.30
2022-08-23T05:39:57.280Z,8.60
2022-08-23T05:40:56.784Z,9.30
2022-08-23T05:41:56.773Z,8.30
2022-08-23T05:42:56.783Z,8.60
2022-08-23T05:43:56.757Z,8.80
2022-08-23T05:44:57.062Z,8.20
2022-08-23T05:45:56.712Z,8.50
2022-08-23T05:46:56.713Z,8.70
2022-08-23T05:47:56.693Z,8.10
2022-08-23T05:48:56.712Z,8.70
2022-08-23T05:49:58.133Z,8.00
2022-08-23T05:50:56.675Z,8.00
2022-08-23T05:51:56.643Z,8.00
2022-08-23T05:52:56.631Z,8.10
2022-08-23T05:53:56.623Z,8.20
2022-08-23T05:54:56.971Z,8.10
2022-08-23T05:55:56.639Z,8.10
2022-08-23T05:56:56.602Z,7.80
2022-08-23T05:57:56.591Z,8.00
2022-08-23T05:58:59.617Z,7.80
2022-08-23T05:59:56.571Z,8.00
2022-08-23T06:00:57.047Z,8.50
2022-08-23T06:01:56.540Z,8.40
2022-08-23T06:02:56.519Z,7.90
2022-08-23T06:03:56.501Z,8.20
2022-08-23T06:04:57.578Z,7.70
2022-08-23T06:05:56.493Z,7.90
2022-08-23T06:06:56.475Z,7.50
2022-08-23T06:07:56.589Z,7.20
2022-08-23T06:08:56.439Z,8.00
2022-08-23T06:09:56.449Z,7.70
2022-08-23T06:10:56.840Z,7.40
2022-08-23T06:11:56.393Z,7.40
2022-08-23T06:12:56.370Z,7.50
2022-08-23T06:13:56.416Z,7.50
2022-08-23T06:14:56.796Z,7.70
2022-08-23T06:15:56.349Z,7.80
2022-08-23T06:16:56.557Z,8.00
2022-08-23T06:17:56.371Z,7.50
2022-08-23T06:18:56.287Z,7.60
2022-08-23T06:19:56.695Z,7.40
2022-08-23T06:20:56.254Z,7.40
2022-08-23T06:21:56.268Z,7.20
2022-08-23T06:22:56.259Z,7.50
2022-08-23T06:23:56.228Z,7.70
2022-08-23T06:24:56.647Z,7.40
2022-08-23T06:25:56.235Z,7.30
2022-08-23T06:26:56.229Z,7.20
2022-08-23T06:27:56.178Z,7.10
2022-08-23T06:28:56.272Z,6.80
2022-08-23T06:29:56.138Z,6.30
2022-08-23T06:30:56.598Z,6.50
2022-08-23T06:31:56.135Z,6.20
2022-08-23T06:32:56.126Z,6.40
2022-08-23T06:33:56.155Z,6.70
2022-08-23T06:35:31.443Z,6.30
2022-08-23T06:35:57.057Z,6.20
2022-08-23T06:36:56.056Z,6.00
2022-08-23T06:37:56.083Z,5.80
2022-08-23T06:38:56.045Z,5.50
2022-08-23T06:39:56.396Z,6.70
2022-08-23T06:40:55.989Z,6.40
2022-08-23T06:41:56.014Z,5.90
2022-08-23T06:42:56.006Z,6.00
2022-08-23T06:43:55.986Z,6.50
2022-08-23T06:44:56.419Z,6.40
2022-08-23T06:45:58.469Z,6.10
2022-08-23T06:46:56.016Z,6.10
2022-08-23T06:47:55.980Z,6.00
2022-08-23T06:48:55.887Z,5.70
2022-08-23T06:49:58.236Z,5.90
2022-08-23T06:50:55.857Z,5.10
2022-08-23T06:51:55.856Z,5.30
2022-08-23T06:52:55.835Z,5.60
2022-08-23T06:53:55.825Z,5.60
2022-08-23T06:54:57.526Z,5.60
2022-08-23T06:55:55.823Z,5.60
2022-08-23T06:56:55.803Z,5.70
2022-08-23T06:57:55.772Z,4.90
2022-08-23T06:58:55.756Z,4.90
2022-08-23T06:59:56.108Z,4.90
2022-08-23T07:00:57.542Z,5.10
2022-08-23T07:01:55.855Z,4.90
2022-08-23T07:02:55.772Z,4.80
2022-08-23T07:03:55.716Z,4.90
2022-08-23T07:04:56.037Z,5.00
2022-08-23T07:05:55.675Z,4.90
2022-08-23T07:06:55.676Z,5.20
2022-08-23T07:07:55.673Z,5.10
2022-08-23T07:08:55.679Z,5.00
2022-08-23T07:09:56.085Z,4.80
2022-08-23T07:10:55.608Z,4.70
2022-08-23T07:11:55.662Z,5.20
2022-08-23T07:12:55.709Z,5.30
2022-08-23T07:13:55.646Z,4.60
2022-08-23T07:14:55.986Z,4.70
2022-08-23T07:15:55.593Z,4.70
2022-08-23T07:16:55.547Z,4.70
2022-08-23T07:17:55.527Z,4.80
2022-08-23T07:18:55.521Z,4.70
2022-08-23T07:19:55.515Z,4.70
2022-08-23T07:20:55.927Z,4.70
2022-08-23T07:21:55.473Z,4.70
2022-08-23T07:22:55.530Z,4.50
2022-08-23T07:23:55.447Z,5.00
2022-08-23T07:24:55.939Z,4.40
2022-08-23T07:25:55.439Z,4.50
2022-08-23T07:26:55.413Z,4.40
2022-08-23T07:27:55.464Z,4.10
2022-08-23T07:28:55.381Z,4.50
2022-08-23T07:29:55.376Z,4.90
2022-08-23T07:30:55.783Z,4.70
2022-08-23T07:31:55.405Z,4.70
2022-08-23T07:32:55.416Z,4.70
2022-08-23T07:33:55.307Z,4.70
2022-08-23T07:34:55.807Z,4.60
2022-08-23T07:35:55.326Z,4.30
2022-08-23T07:36:55.277Z,5.00
2022-08-23T07:37:55.301Z,4.40
2022-08-23T07:38:55.295Z,4.40
2022-08-23T07:39:58.491Z,4.80
2022-08-23T07:40:55.804Z,4.30
2022-08-23T07:41:55.238Z,4.60
2022-08-23T07:42:55.285Z,4.50
2022-08-23T07:43:55.207Z,4.00
2022-08-23T07:44:55.180Z,4.50
2022-08-23T07:45:55.606Z,4.40
2022-08-23T07:46:55.233Z,4.60
2022-08-23T07:47:55.145Z,4.20
2022-08-23T07:48:55.306Z,4.10
2022-08-23T07:49:55.120Z,4.70
2022-08-23T07:50:57.874Z,4.20
2022-08-23T07:51:55.150Z,4.40
2022-08-23T07:52:55.081Z,4.20
2022-08-23T07:53:55.082Z,4.20
2022-08-23T07:54:55.045Z,4.30
2022-08-23T07:55:55.069Z,3.90
2022-08-23T07:56:55.453Z,4.50
2022-08-23T07:57:55.038Z,4.20
2022-08-23T07:58:55.029Z,4.00
2022-08-23T07:59:54.988Z,4.10
2022-08-23T08:00:54.998Z,4.00
2022-08-23T08:01:55.482Z,4.20
2022-08-23T08:02:55.070Z,4.40
2022-08-23T08:03:54.969Z,3.90
2022-08-23T08:04:54.927Z,4.10
2022-08-23T08:05:54.924Z,4.20
2022-08-23T08:07:17.666Z,4.00
2022-08-23T08:07:55.922Z,4.50
2022-08-23T08:08:54.869Z,4.00
2022-08-23T08:09:54.927Z,4.10
2022-08-23T08:10:54.882Z,4.10
2022-08-23T08:11:55.314Z,4.00
2022-08-23T08:12:54.858Z,3.80
2022-08-23T08:13:54.811Z,4.30
2022-08-23T08:14:54.810Z,4.10
2022-08-23T08:15:54.871Z,4.10
2022-08-23T08:16:55.117Z,3.90
2022-08-23T08:17:54.799Z,4.40
2022-08-23T08:18:54.769Z,4.70
2022-08-23T08:19:54.778Z,4.30
2022-08-23T08:20:54.749Z,4.20
2022-08-23T08:21:55.169Z,4.10
2022-08-23T08:22:58.384Z,4.60
2022-08-23T08:23:54.699Z,4.00
2022-08-23T08:24:54.686Z,4.00
2022-08-23T08:25:54.679Z,3.90
2022-08-23T08:26:55.045Z,3.90
2022-08-23T08:27:54.666Z,3.90
2022-08-23T08:28:54.636Z,3.90
2022-08-23T08:29:54.678Z,4.10
2022-08-23T08:30:54.650Z,4.00
2022-08-23T08:31:54.967Z,4.30
2022-08-23T08:32:54.576Z,3.70
2022-08-23T08:33:54.601Z,3.70
2022-08-23T08:34:54.549Z,3.80
2022-08-23T08:35:59.336Z,3.90
2022-08-23T08:36:57.988Z,4.10
2022-08-23T08:37:54.521Z,4.00
2022-08-23T08:38:58.794Z,3.90
2022-08-23T08:39:55.579Z,3.70
2022-08-23T08:40:54.509Z,3.60
2022-08-23T08:42:04.191Z,3.50
2022-08-23T08:42:55.593Z,3.50
2022-08-23T08:43:55.700Z,3.50
2022-08-23T08:44:54.456Z,4.00
2022-08-23T08:45:57.611Z,3.70
2022-08-23T08:46:54.750Z,3.80
2022-08-23T08:47:54.430Z,4.10
2022-08-23T08:48:54.379Z,3.70
2022-08-23T08:49:54.372Z,3.80
2022-08-23T08:50:54.350Z,3.70
2022-08-23T08:51:54.390Z,4.00
2022-08-23T08:52:54.741Z,3.40
2022-08-23T08:53:54.349Z,4.00
2022-08-23T08:54:55.750Z,3.80
2022-08-23T08:55:54.281Z,3.80
2022-08-23T08:56:54.299Z,3.50
2022-08-23T08:57:54.707Z,3.70
2022-08-23T08:58:54.301Z,3.70
2022-08-23T08:59:54.321Z,3.70
2022-08-23T09:00:56.697Z,3.50
2022-08-23T09:01:54.274Z,3.40
2022-08-23T09:02:54.721Z,3.70
2022-08-23T09:03:54.191Z,3.40
2022-08-23T09:04:54.209Z,3.60
2022-08-23T09:05:54.199Z,3.40
2022-08-23T09:06:54.199Z,3.70
2022-08-23T09:07:54.588Z,3.30
2022-08-23T09:08:54.149Z,3.30
2022-08-23T09:09:54.130Z,3.30
2022-08-23T09:10:54.131Z,3.50
2022-08-23T09:11:54.099Z,3.50
2022-08-23T09:12:54.495Z,3.40
2022-08-23T09:13:54.070Z,3.80
2022-08-23T09:14:54.071Z,3.40
2022-08-23T09:15:54.101Z,3.30
2022-08-23T09:16:54.044Z,3.30
2022-08-23T09:17:54.509Z,3.30
2022-08-23T09:18:54.008Z,2.80
2022-08-23T09:19:54.079Z,3.20
2022-08-23T09:20:54.268Z,3.10
2022-08-23T09:21:54.121Z,3.10
2022-08-23T09:22:54.357Z,2.70
2022-08-23T09:24:00.330Z,3.30
2022-08-23T09:24:54.949Z,2.60
2022-08-23T09:25:53.939Z,2.60
2022-08-23T09:26:53.958Z,2.90
2022-08-23T09:27:53.896Z,3.30
2022-08-23T09:28:54.349Z,3.00
2022-08-23T09:29:53.922Z,3.00
2022-08-23T09:30:53.878Z,2.90
2022-08-23T09:31:53.854Z,2.80
2022-08-23T09:32:53.848Z,2.70
2022-08-23T09:33:54.221Z,3.00
2022-08-23T09:34:53.799Z,2.90
2022-08-23T09:35:53.778Z,2.60
2022-08-23T09:36:53.799Z,2.60
2022-08-23T09:37:53.780Z,3.10
2022-08-23T09:38:54.278Z,3.10
2022-08-23T09:39:53.911Z,3.00
2022-08-23T09:40:53.807Z,2.50
2022-08-23T09:41:53.700Z,2.70
2022-08-23T09:42:53.699Z,2.80
2022-08-23T09:43:54.076Z,2.50
2022-08-23T09:44:53.691Z,2.50
2022-08-23T09:45:53.665Z,2.70
2022-08-23T09:46:53.676Z,2.60
2022-08-23T09:47:53.628Z,2.90
2022-08-23T09:48:54.009Z,2.90
2022-08-23T09:49:53.784Z,2.70
2022-08-23T09:50:53.799Z,2.80
2022-08-23T09:51:54.252Z,2.80
2022-08-23T09:52:53.667Z,2.50
2022-08-23T09:53:54.001Z,3.00
2022-08-23T09:54:55.817Z,2.80
2022-08-23T09:55:53.539Z,2.70
2022-08-23T09:56:53.505Z,2.80
2022-08-23T09:57:53.507Z,3.00
2022-08-23T09:58:53.891Z,2.80
2022-08-23T09:59:53.489Z,2.60
2022-08-23T10:00:53.539Z,2.80
2022-08-23T10:01:53.555Z,2.60
2022-08-23T10:02:53.450Z,2.80
2022-08-23T10:03:53.439Z,3.00
2022-08-23T10:04:53.474Z,2.90
2022-08-23T10:05:53.398Z,2.50
2022-08-23T10:06:53.375Z,3.50
2022-08-23T10:07:53.378Z,3.30
2022-08-23T10:08:53.677Z,2.90
2022-08-23T10:09:53.369Z,3.00
2022-08-23T10:10:53.366Z,2.90
2022-08-23T10:11:53.693Z,3.00
2022-08-23T10:12:54.264Z,3.40
2022-08-23T10:13:53.317Z,3.30
2022-08-23T10:14:53.296Z,3.10
2022-08-23T10:15:53.291Z,2.80
2022-08-23T10:16:54.310Z,2.60
2022-08-23T10:17:53.297Z,2.50
2022-08-23T10:18:53.601Z,2.60
2022-08-23T10:19:53.220Z,2.60
2022-08-23T10:20:53.208Z,2.50
2022-08-23T10:21:53.249Z,2.60
2022-08-23T10:22:53.207Z,2.50
2022-08-23T10:23:53.747Z,2.10
2022-08-23T10:24:53.158Z,2.70
2022-08-23T10:25:53.250Z,2.60
2022-08-23T10:26:53.155Z,2.50
2022-08-23T10:27:53.136Z,2.80
2022-08-23T10:28:53.567Z,2.80
2022-08-23T10:29:53.128Z,2.90
2022-08-23T10:30:53.259Z,2.40
2022-08-23T10:31:55.730Z,2.80
2022-08-23T10:32:54.307Z,2.80
2022-08-23T10:33:53.060Z,2.60
2022-08-23T10:34:53.462Z,2.70
2022-08-23T10:35:53.028Z,3.40
2022-08-23T10:36:53.007Z,2.90
2022-08-23T10:37:53.005Z,2.80
2022-08-23T10:38:53.384Z,2.80
2022-08-23T10:39:53.007Z,2.90
2022-08-23T10:40:52.967Z,2.80
2022-08-23T10:41:53.219Z,2.90
2022-08-23T10:42:52.928Z,2.70
2022-08-23T10:43:52.918Z,2.80
2022-08-23T10:44:52.990Z,2.70
2022-08-23T10:45:55.986Z,3.00
2022-08-23T10:46:53.912Z,2.60
2022-08-23T10:47:52.878Z,2.40
2022-08-23T10:48:53.294Z,2.80
2022-08-23T10:49:53.339Z,2.60
2022-08-23T10:50:56.010Z,2.60
2022-08-23T10:51:52.830Z,2.70
2022-08-23T10:52:52.836Z,2.90
2022-08-23T10:53:52.777Z,2.60
2022-08-23T10:54:53.213Z,2.30
2022-08-23T10:55:52.777Z,2.60
2022-08-23T10:56:52.766Z,2.80
2022-08-23T10:57:52.807Z,2.50
2022-08-23T10:58:52.700Z,2.70
2022-08-23T10:59:53.349Z,2.80
2022-08-23T11:00:52.796Z,2.30
2022-08-23T11:01:52.699Z,2.80
2022-08-23T11:02:52.896Z,2.40
2022-08-23T11:03:52.654Z,2.70
2022-08-23T11:04:53.083Z,2.70
2022-08-23T11:05:52.607Z,2.70
2022-08-23T11:06:52.608Z,2.50
2022-08-23T11:07:52.605Z,2.90
2022-08-23T11:08:52.564Z,2.50
2022-08-23T11:09:52.998Z,2.50
2022-08-23T11:10:56.832Z,2.70
2022-08-23T11:11:52.587Z,2.50
2022-08-23T11:12:52.536Z,2.70
2022-08-23T11:13:52.524Z,2.50
2022-08-23T11:14:52.927Z,2.70
2022-08-23T11:15:52.545Z,2.80
2022-08-23T11:16:52.500Z,2.40
2022-08-23T11:17:52.467Z,2.70
2022-08-23T11:18:52.495Z,2.70
2022-08-23T11:19:52.772Z,2.50
2022-08-23T11:20:52.425Z,2.40
2022-08-23T11:21:52.436Z,2.60
2022-08-23T11:22:52.436Z,2.80
2022-08-23T11:23:52.388Z,2.60
2022-08-23T11:24:52.445Z,2.90
2022-08-23T11:25:52.367Z,2.80
2022-08-23T11:26:52.374Z,2.70
2022-08-23T11:27:52.376Z,2.70
2022-08-23T11:28:52.387Z,2.80
2022-08-23T11:29:52.366Z,2.70
2022-08-23T11:30:52.394Z,2.60
2022-08-23T11:31:52.292Z,3.00
2022-08-23T11:32:52.606Z,2.70
2022-08-23T11:33:52.317Z,2.80
2022-08-23T11:34:52.318Z,2.60
2022-08-23T11:35:52.267Z,2.50
2022-08-23T11:36:52.248Z,2.50
2022-08-23T11:37:52.223Z,2.50
2022-08-23T11:38:52.229Z,2.50
2022-08-23T11:39:52.251Z,2.50
2022-08-23T11:40:52.201Z,2.60
2022-08-23T11:41:52.214Z,2.60
2022-08-23T11:42:52.163Z,2.70
2022-08-23T11:43:52.158Z,2.60
2022-08-23T11:44:52.165Z,3.10
2022-08-23T11:45:52.147Z,2.50
2022-08-23T11:46:52.117Z,2.50
2022-08-23T11:47:52.083Z,2.40
2022-08-23T11:48:52.105Z,2.50
2022-08-23T11:49:52.158Z,2.60
2022-08-23T11:50:57.422Z,2.80
2022-08-23T11:51:53.019Z,2.40
2022-08-23T11:52:52.048Z,2.40
2022-08-23T11:53:51.997Z,2.40
2022-08-23T11:54:52.042Z,2.60
2022-08-23T11:55:51.988Z,2.20
2022-08-23T11:56:51.964Z,2.60
2022-08-23T11:57:52.053Z,2.60
2022-08-23T11:58:51.979Z,2.70
2022-08-23T11:59:52.082Z,2.50
2022-08-23T12:00:52.003Z,2.70
2022-08-23T12:01:51.906Z,2.50
2022-08-23T12:02:52.113Z,2.50
2022-08-23T12:03:52.039Z,2.60
2022-08-23T12:04:51.907Z,2.50
2022-08-23T12:05:51.908Z,2.30
2022-08-23T12:06:52.914Z,2.70
2022-08-23T12:07:51.856Z,2.70
2022-08-23T12:08:51.843Z,2.30
2022-08-23T12:09:51.828Z,2.50
2022-08-23T12:10:52.210Z,2.30
2022-08-23T12:11:51.775Z,2.40
2022-08-23T12:12:51.770Z,2.30
2022-08-23T12:13:51.744Z,2.40
2022-08-23T12:14:51.807Z,2.60
2022-08-23T12:15:51.809Z,2.20
2022-08-23T12:16:52.016Z,2.20
2022-08-23T12:17:51.777Z,2.30
2022-08-23T12:18:51.708Z,2.40
2022-08-23T12:19:51.706Z,2.50
2022-08-23T12:20:51.646Z,2.40
2022-08-23T12:21:51.656Z,2.50
2022-08-23T12:22:51.653Z,2.30
2022-08-23T12:23:51.646Z,2.60
2022-08-23T12:24:52.714Z,2.50
2022-08-23T12:25:51.616Z,2.80
2022-08-23T12:26:51.578Z,2.60
2022-08-23T12:27:51.559Z,2.40
2022-08-23T12:28:51.558Z,2.60
2022-08-23T12:29:51.554Z,2.10
2022-08-23T12:30:52.028Z,2.40
2022-08-23T12:31:51.506Z,2.40
2022-08-23T12:32:51.492Z,2.20
2022-08-23T12:33:51.480Z,2.30
2022-08-23T12:34:51.523Z,2.70
2022-08-23T12:35:51.475Z,2.40
2022-08-23T12:36:51.506Z,2.50
2022-08-23T12:37:51.611Z,2.40
2022-08-23T12:38:51.425Z,2.50
2022-08-23T12:39:51.473Z,2.30
2022-08-23T12:40:51.664Z,2.30
2022-08-23T12:41:51.366Z,2.40
2022-08-23T12:42:51.405Z,2.40
2022-08-23T12:43:51.377Z,2.60
2022-08-23T12:44:51.355Z,2.50
2022-08-23T12:45:59.465Z,2.50
2022-08-23T12:46:51.411Z,2.30
2022-08-23T12:47:51.461Z,2.70
2022-08-23T12:48:51.312Z,2.50
2022-08-23T12:49:51.346Z,2.50
2022-08-23T12:50:51.286Z,2.30
2022-08-23T12:51:51.343Z,2.60
2022-08-23T12:52:51.297Z,2.30
2022-08-23T12:53:51.231Z,2.40
2022-08-23T12:54:51.231Z,2.50
2022-08-23T12:55:51.234Z,2.40
2022-08-23T12:56:51.223Z,2.40
2022-08-23T12:57:51.248Z,2.70
2022-08-23T12:58:51.226Z,2.30
2022-08-23T12:59:51.621Z,2.40
2022-08-23T13:00:51.161Z,2.50
2022-08-23T13:01:51.254Z,2.30
2022-08-23T13:02:51.232Z,2.00
2022-08-23T13:03:51.109Z,2.50
2022-08-23T13:04:51.417Z,2.30
2022-08-23T13:05:52.775Z,2.30
2022-08-23T13:06:51.091Z,2.60
2022-08-23T13:07:51.073Z,2.30
2022-08-23T13:08:51.036Z,2.40
2022-08-23T13:09:53.962Z,2.60
2022-08-23T13:10:51.044Z,2.20
2022-08-23T13:11:51.087Z,2.50
2022-08-23T13:12:50.990Z,2.30
2022-08-23T13:13:50.951Z,2.50
2022-08-23T13:14:51.332Z,2.30
2022-08-23T13:15:51.083Z,2.50
2022-08-23T13:16:50.941Z,2.30
2022-08-23T13:17:50.937Z,2.40
2022-08-23T13:18:50.903Z,2.50